sensor_id;sensor_type;location;lat;lon;timestamp;P1;durP1;ratioP1;P2;durP2;ratioP2
17197;SDS011;8715;51.010;6.812;2023-03-07T00:01:36;777.90;;;739.13;;
17197;SDS011;8715;51.010;6.812;2023-03-07T00:04:01;782.30;;;744.00;;
17197;SDS011;8715;51.010;6.812;2023-03-07T00:06:27;781.07;;;742.93;;
17197;SDS011;8715;51.010;6.812;2023-03-07T00:08:53;784.05;;;745.17;;
17197;SDS011;8715;51.010;6.812;2023-03-07T00:11:19;779.38;;;740.92;;
17197;SDS011;8715;51.010;6.812;2023-03-07T00:13:44;783.00;;;744.33;;
17197;SDS011;8715;51.010;6.812;2023-03-07T00:16:11;782.97;;;744.33;;
17197;SDS011;8715;51.010;6.812;2023-03-07T00:18:36;780.95;;;742.85;;
17197;SDS011;8715;51.010;6.812;2023-03-07T00:21:02;776.43;;;738.77;;
17197;SDS011;8715;51.010;6.812;2023-03-07T00:23:30;775.60;;;738.05;;
17197;SDS011;8715;51.010;6.812;2023-03-07T00:25:58;783.73;;;745.30;;
17197;SDS011;8715;51.010;6.812;2023-03-07T00:28:24;779.55;;;741.40;;
17197;SDS011;8715;51.010;6.812;2023-03-07T00:30:49;779.63;;;741.40;;
17197;SDS011;8715;51.010;6.812;2023-03-07T00:33:15;776.63;;;738.20;;
17197;SDS011;8715;51.010;6.812;2023-03-07T00:35:40;779.20;;;740.97;;
17197;SDS011;8715;51.010;6.812;2023-03-07T00:38:05;770.00;;;732.77;;
17197;SDS011;8715;51.010;6.812;2023-03-07T00:40:30;779.97;;;741.67;;
17197;SDS011;8715;51.010;6.812;2023-03-07T00:42:55;771.80;;;734.40;;
17197;SDS011;8715;51.010;6.812;2023-03-07T00:45:20;780.67;;;742.17;;
17197;SDS011;8715;51.010;6.812;2023-03-07T00:47:46;774.40;;;737.10;;
17197;SDS011;8715;51.010;6.812;2023-03-07T00:50:11;771.10;;;733.77;;
17197;SDS011;8715;51.010;6.812;2023-03-07T00:52:36;771.20;;;734.30;;
17197;SDS011;8715;51.010;6.812;2023-03-07T00:55:02;767.57;;;730.57;;
17197;SDS011;8715;51.010;6.812;2023-03-07T00:57:27;776.08;;;737.42;;
17197;SDS011;8715;51.010;6.812;2023-03-07T00:59:52;764.97;;;728.97;;
17197;SDS011;8715;51.010;6.812;2023-03-07T01:02:18;776.40;;;738.67;;
17197;SDS011;8715;51.010;6.812;2023-03-07T01:04:43;793.77;;;755.70;;
17197;SDS011;8715;51.010;6.812;2023-03-07T01:07:08;775.27;;;738.13;;
17197;SDS011;8715;51.010;6.812;2023-03-07T01:09:33;770.47;;;733.53;;
17197;SDS011;8715;51.010;6.812;2023-03-07T01:11:58;767.90;;;731.37;;
17197;SDS011;8715;51.010;6.812;2023-03-07T01:14:23;764.90;;;728.50;;
17197;SDS011;8715;51.010;6.812;2023-03-07T01:16:49;765.07;;;728.83;;
17197;SDS011;8715;51.010;6.812;2023-03-07T01:19:14;764.63;;;728.63;;
17197;SDS011;8715;51.010;6.812;2023-03-07T01:21:40;776.20;;;739.27;;
17197;SDS011;8715;51.010;6.812;2023-03-07T01:24:06;775.60;;;738.70;;
17197;SDS011;8715;51.010;6.812;2023-03-07T01:26:32;778.78;;;741.55;;
17197;SDS011;8715;51.010;6.812;2023-03-07T01:28:58;767.30;;;730.97;;
17197;SDS011;8715;51.010;6.812;2023-03-07T01:31:24;770.60;;;734.00;;
17197;SDS011;8715;51.010;6.812;2023-03-07T01:33:51;774.85;;;738.05;;
17197;SDS011;8715;51.010;6.812;2023-03-07T01:36:17;770.00;;;733.60;;
17197;SDS011;8715;51.010;6.812;2023-03-07T01:38:43;768.58;;;732.25;;
17197;SDS011;8715;51.010;6.812;2023-03-07T01:41:08;764.10;;;728.08;;
17197;SDS011;8715;51.010;6.812;2023-03-07T01:43:33;758.57;;;722.63;;
17197;SDS011;8715;51.010;6.812;2023-03-07T01:51:20;771.72;;;735.03;;
17197;SDS011;8715;51.010;6.812;2023-03-07T01:53:45;768.08;;;731.90;;
17197;SDS011;8715;51.010;6.812;2023-03-07T01:56:13;761.65;;;725.72;;
17197;SDS011;8715;51.010;6.812;2023-03-07T01:58:38;762.53;;;726.42;;
17197;SDS011;8715;51.010;6.812;2023-03-07T02:01:04;763.77;;;727.73;;
17197;SDS011;8715;51.010;6.812;2023-03-07T02:03:32;769.55;;;733.08;;
17197;SDS011;8715;51.010;6.812;2023-03-07T02:06:00;774.13;;;737.40;;
17197;SDS011;8715;51.010;6.812;2023-03-07T02:08:27;770.92;;;734.40;;
17197;SDS011;8715;51.010;6.812;2023-03-07T02:10:53;768.28;;;731.95;;
17197;SDS011;8715;51.010;6.812;2023-03-07T02:13:18;765.67;;;729.57;;
17197;SDS011;8715;51.010;6.812;2023-03-07T02:15:44;761.35;;;725.20;;
17197;SDS011;8715;51.010;6.812;2023-03-07T02:18:09;768.60;;;732.07;;
17197;SDS011;8715;51.010;6.812;2023-03-07T02:23:01;774.10;;;737.30;;
17197;SDS011;8715;51.010;6.812;2023-03-07T02:25:36;771.90;;;735.15;;
17197;SDS011;8715;51.010;6.812;2023-03-07T02:30:29;752.30;;;717.92;;
17197;SDS011;8715;51.010;6.812;2023-03-07T02:32:54;758.40;;;723.00;;
17197;SDS011;8715;51.010;6.812;2023-03-07T02:35:21;774.40;;;737.60;;
17197;SDS011;8715;51.010;6.812;2023-03-07T02:37:47;769.78;;;733.22;;
17197;SDS011;8715;51.010;6.812;2023-03-07T02:40:13;759.38;;;723.70;;
17197;SDS011;8715;51.010;6.812;2023-03-07T02:42:40;766.55;;;729.80;;
17197;SDS011;8715;51.010;6.812;2023-03-07T02:45:07;793.85;;;755.05;;
17197;SDS011;8715;51.010;6.812;2023-03-07T02:47:34;767.35;;;730.67;;
17197;SDS011;8715;51.010;6.812;2023-03-07T02:49:59;767.00;;;730.17;;
17197;SDS011;8715;51.010;6.812;2023-03-07T02:52:24;773.53;;;736.17;;
17197;SDS011;8715;51.010;6.812;2023-03-07T02:54:51;774.75;;;737.28;;
17197;SDS011;8715;51.010;6.812;2023-03-07T02:57:17;773.60;;;735.67;;
17197;SDS011;8715;51.010;6.812;2023-03-07T03:02:12;775.83;;;737.95;;
17197;SDS011;8715;51.010;6.812;2023-03-07T03:04:37;771.83;;;734.80;;
17197;SDS011;8715;51.010;6.812;2023-03-07T03:07:02;777.30;;;739.13;;
17197;SDS011;8715;51.010;6.812;2023-03-07T03:09:28;770.35;;;733.40;;
17197;SDS011;8715;51.010;6.812;2023-03-07T03:11:53;773.15;;;735.53;;
17197;SDS011;8715;51.010;6.812;2023-03-07T03:14:18;773.10;;;735.53;;
17197;SDS011;8715;51.010;6.812;2023-03-07T03:16:44;778.63;;;741.00;;
17197;SDS011;8715;51.010;6.812;2023-03-07T03:19:09;776.73;;;738.73;;
17197;SDS011;8715;51.010;6.812;2023-03-07T03:21:37;772.73;;;735.43;;
17197;SDS011;8715;51.010;6.812;2023-03-07T03:24:05;777.28;;;739.15;;
17197;SDS011;8715;51.010;6.812;2023-03-07T03:26:32;803.70;;;764.00;;
17197;SDS011;8715;51.010;6.812;2023-03-07T03:28:57;777.53;;;739.70;;
17197;SDS011;8715;51.010;6.812;2023-03-07T03:31:22;780.00;;;741.93;;
17197;SDS011;8715;51.010;6.812;2023-03-07T03:33:48;800.53;;;761.03;;
17197;SDS011;8715;51.010;6.812;2023-03-07T03:36:16;777.88;;;740.15;;
17197;SDS011;8715;51.010;6.812;2023-03-07T03:38:41;768.07;;;730.57;;
17197;SDS011;8715;51.010;6.812;2023-03-07T03:41:07;770.77;;;733.40;;
17197;SDS011;8715;51.010;6.812;2023-03-07T03:43:33;772.47;;;735.03;;
17197;SDS011;8715;51.010;6.812;2023-03-07T03:45:58;781.80;;;743.65;;
17197;SDS011;8715;51.010;6.812;2023-03-07T03:48:23;777.73;;;739.80;;
17197;SDS011;8715;51.010;6.812;2023-03-07T03:50:49;802.65;;;763.00;;
17197;SDS011;8715;51.010;6.812;2023-03-07T03:53:14;773.20;;;735.67;;
17197;SDS011;8715;51.010;6.812;2023-03-07T03:55:39;777.97;;;739.95;;
17197;SDS011;8715;51.010;6.812;2023-03-07T03:58:05;769.97;;;732.83;;
17197;SDS011;8715;51.010;6.812;2023-03-07T04:00:30;774.20;;;736.57;;
17197;SDS011;8715;51.010;6.812;2023-03-07T04:02:55;778.50;;;740.50;;
17197;SDS011;8715;51.010;6.812;2023-03-07T04:05:20;779.50;;;741.53;;
17197;SDS011;8715;51.010;6.812;2023-03-07T04:07:46;773.15;;;735.88;;
17197;SDS011;8715;51.010;6.812;2023-03-07T04:10:13;777.70;;;739.40;;
17197;SDS011;8715;51.010;6.812;2023-03-07T04:12:38;772.10;;;734.97;;
17197;SDS011;8715;51.010;6.812;2023-03-07T04:15:04;774.33;;;736.97;;
17197;SDS011;8715;51.010;6.812;2023-03-07T04:17:31;800.38;;;759.65;;
17197;SDS011;8715;51.010;6.812;2023-03-07T04:19:56;781.00;;;743.03;;
17197;SDS011;8715;51.010;6.812;2023-03-07T04:22:22;771.37;;;733.53;;
17197;SDS011;8715;51.010;6.812;2023-03-07T04:24:47;777.33;;;739.60;;
17197;SDS011;8715;51.010;6.812;2023-03-07T04:27:12;804.43;;;764.23;;
17197;SDS011;8715;51.010;6.812;2023-03-07T04:29:37;775.77;;;738.17;;
17197;SDS011;8715;51.010;6.812;2023-03-07T04:32:02;774.07;;;736.17;;
17197;SDS011;8715;51.010;6.812;2023-03-07T04:34:28;777.90;;;739.87;;
17197;SDS011;8715;51.010;6.812;2023-03-07T04:36:53;778.90;;;740.90;;
17197;SDS011;8715;51.010;6.812;2023-03-07T04:39:18;777.13;;;739.27;;
17197;SDS011;8715;51.010;6.812;2023-03-07T04:41:43;773.40;;;735.53;;
17197;SDS011;8715;51.010;6.812;2023-03-07T04:44:08;768.83;;;731.83;;
17197;SDS011;8715;51.010;6.812;2023-03-07T04:46:34;768.93;;;731.67;;
17197;SDS011;8715;51.010;6.812;2023-03-07T04:48:59;780.13;;;741.73;;
17197;SDS011;8715;51.010;6.812;2023-03-07T04:51:24;775.13;;;736.87;;
17197;SDS011;8715;51.010;6.812;2023-03-07T04:53:49;783.53;;;744.73;;
17197;SDS011;8715;51.010;6.812;2023-03-07T04:56:14;768.87;;;731.07;;
17197;SDS011;8715;51.010;6.812;2023-03-07T04:58:40;767.92;;;730.58;;
17197;SDS011;8715;51.010;6.812;2023-03-07T05:01:05;776.10;;;738.10;;
17197;SDS011;8715;51.010;6.812;2023-03-07T05:03:31;783.10;;;744.43;;
17197;SDS011;8715;51.010;6.812;2023-03-07T05:05:59;773.90;;;735.92;;
17197;SDS011;8715;51.010;6.812;2023-03-07T05:08:24;775.15;;;737.42;;
17197;SDS011;8715;51.010;6.812;2023-03-07T05:10:50;774.07;;;736.20;;
17197;SDS011;8715;51.010;6.812;2023-03-07T05:13:15;780.47;;;742.00;;
17197;SDS011;8715;51.010;6.812;2023-03-07T05:15:40;780.03;;;741.13;;
17197;SDS011;8715;51.010;6.812;2023-03-07T05:18:05;775.17;;;737.00;;
17197;SDS011;8715;51.010;6.812;2023-03-07T05:20:30;778.40;;;740.27;;
17197;SDS011;8715;51.010;6.812;2023-03-07T05:22:57;777.70;;;738.92;;
17197;SDS011;8715;51.010;6.812;2023-03-07T05:25:22;780.57;;;741.53;;
17197;SDS011;8715;51.010;6.812;2023-03-07T05:27:48;773.53;;;735.73;;
17197;SDS011;8715;51.010;6.812;2023-03-07T05:30:13;778.97;;;740.20;;
17197;SDS011;8715;51.010;6.812;2023-03-07T05:32:38;775.10;;;737.28;;
17197;SDS011;8715;51.010;6.812;2023-03-07T05:35:04;775.50;;;737.95;;
17197;SDS011;8715;51.010;6.812;2023-03-07T05:37:29;776.60;;;737.08;;
17197;SDS011;8715;51.010;6.812;2023-03-07T05:39:55;767.37;;;729.63;;
17197;SDS011;8715;51.010;6.812;2023-03-07T05:42:20;772.23;;;734.23;;
17197;SDS011;8715;51.010;6.812;2023-03-07T05:44:45;766.87;;;729.10;;
17197;SDS011;8715;51.010;6.812;2023-03-07T05:47:10;767.50;;;730.00;;
17197;SDS011;8715;51.010;6.812;2023-03-07T05:49:35;770.90;;;733.60;;
17197;SDS011;8715;51.010;6.812;2023-03-07T05:52:01;776.53;;;738.17;;
17197;SDS011;8715;51.010;6.812;2023-03-07T05:54:26;774.07;;;735.77;;
17197;SDS011;8715;51.010;6.812;2023-03-07T05:56:51;771.63;;;734.33;;
17197;SDS011;8715;51.010;6.812;2023-03-07T05:59:16;772.53;;;734.37;;
17197;SDS011;8715;51.010;6.812;2023-03-07T06:01:42;775.53;;;737.22;;
17197;SDS011;8715;51.010;6.812;2023-03-07T06:04:07;764.40;;;727.40;;
17197;SDS011;8715;51.010;6.812;2023-03-07T06:06:34;778.60;;;739.97;;
17197;SDS011;8715;51.010;6.812;2023-03-07T06:08:59;775.17;;;737.03;;
17197;SDS011;8715;51.010;6.812;2023-03-07T06:11:24;782.13;;;743.43;;
17197;SDS011;8715;51.010;6.812;2023-03-07T06:13:49;778.23;;;739.90;;
17197;SDS011;8715;51.010;6.812;2023-03-07T06:16:14;773.70;;;735.27;;
17197;SDS011;8715;51.010;6.812;2023-03-07T06:18:40;776.30;;;738.37;;
17197;SDS011;8715;51.010;6.812;2023-03-07T06:21:05;773.60;;;735.70;;
17197;SDS011;8715;51.010;6.812;2023-03-07T06:23:32;779.22;;;740.47;;
17197;SDS011;8715;51.010;6.812;2023-03-07T06:25:57;774.03;;;735.80;;
17197;SDS011;8715;51.010;6.812;2023-03-07T06:28:23;780.90;;;742.10;;
17197;SDS011;8715;51.010;6.812;2023-03-07T06:30:48;773.10;;;735.20;;
17197;SDS011;8715;51.010;6.812;2023-03-07T06:33:13;786.88;;;746.78;;
17197;SDS011;8715;51.010;6.812;2023-03-07T06:35:39;804.75;;;763.55;;
17197;SDS011;8715;51.010;6.812;2023-03-07T06:38:05;781.03;;;742.35;;
17197;SDS011;8715;51.010;6.812;2023-03-07T06:40:30;784.28;;;744.60;;
17197;SDS011;8715;51.010;6.812;2023-03-07T06:42:55;780.57;;;741.90;;
17197;SDS011;8715;51.010;6.812;2023-03-07T06:45:20;774.03;;;735.10;;
17197;SDS011;8715;51.010;6.812;2023-03-07T06:47:46;782.00;;;743.33;;
17197;SDS011;8715;51.010;6.812;2023-03-07T06:50:11;782.07;;;742.93;;
17197;SDS011;8715;51.010;6.812;2023-03-07T06:52:36;776.33;;;737.33;;
17197;SDS011;8715;51.010;6.812;2023-03-07T06:55:01;775.60;;;736.90;;
17197;SDS011;8715;51.010;6.812;2023-03-07T06:57:27;807.38;;;765.10;;
17197;SDS011;8715;51.010;6.812;2023-03-07T06:59:53;785.00;;;745.40;;
17197;SDS011;8715;51.010;6.812;2023-03-07T07:02:18;788.23;;;747.97;;
17197;SDS011;8715;51.010;6.812;2023-03-07T07:04:43;785.20;;;745.70;;
17197;SDS011;8715;51.010;6.812;2023-03-07T07:07:09;782.50;;;743.30;;
17197;SDS011;8715;51.010;6.812;2023-03-07T07:09:35;781.03;;;741.72;;
17197;SDS011;8715;51.010;6.812;2023-03-07T07:12:00;791.10;;;751.10;;
17197;SDS011;8715;51.010;6.812;2023-03-07T07:14:25;791.60;;;751.47;;
17197;SDS011;8715;51.010;6.812;2023-03-07T07:16:50;792.67;;;752.40;;
17197;SDS011;8715;51.010;6.812;2023-03-07T07:19:16;797.10;;;756.10;;
17197;SDS011;8715;51.010;6.812;2023-03-07T07:21:41;791.73;;;751.40;;
17197;SDS011;8715;51.010;6.812;2023-03-07T07:24:07;790.37;;;750.17;;
17197;SDS011;8715;51.010;6.812;2023-03-07T07:26:34;797.80;;;756.90;;
17197;SDS011;8715;51.010;6.812;2023-03-07T07:28:59;811.60;;;767.97;;
17197;SDS011;8715;51.010;6.812;2023-03-07T07:31:24;802.77;;;761.13;;
17197;SDS011;8715;51.010;6.812;2023-03-07T07:33:49;801.37;;;759.93;;
17197;SDS011;8715;51.010;6.812;2023-03-07T07:36:15;801.53;;;760.10;;
17197;SDS011;8715;51.010;6.812;2023-03-07T07:38:40;799.77;;;758.30;;
17197;SDS011;8715;51.010;6.812;2023-03-07T07:43:33;803.05;;;760.42;;
17197;SDS011;8715;51.010;6.812;2023-03-07T07:46:01;800.27;;;758.93;;
17197;SDS011;8715;51.010;6.812;2023-03-07T07:48:26;832.17;;;787.75;;
17197;SDS011;8715;51.010;6.812;2023-03-07T07:50:51;814.93;;;771.63;;
17197;SDS011;8715;51.010;6.812;2023-03-07T07:53:17;811.93;;;769.37;;
17197;SDS011;8715;51.010;6.812;2023-03-07T07:55:42;806.95;;;764.38;;
17197;SDS011;8715;51.010;6.812;2023-03-07T07:58:08;831.30;;;786.13;;
17197;SDS011;8715;51.010;6.812;2023-03-07T08:00:33;801.73;;;759.43;;
17197;SDS011;8715;51.010;6.812;2023-03-07T08:02:58;804.63;;;762.97;;
17197;SDS011;8715;51.010;6.812;2023-03-07T08:05:24;801.58;;;759.67;;
17197;SDS011;8715;51.010;6.812;2023-03-07T08:07:49;804.20;;;762.10;;
17197;SDS011;8715;51.010;6.812;2023-03-07T08:10:17;800.27;;;757.70;;
17197;SDS011;8715;51.010;6.812;2023-03-07T08:12:42;798.17;;;756.42;;
17197;SDS011;8715;51.010;6.812;2023-03-07T08:15:08;804.05;;;762.15;;
17197;SDS011;8715;51.010;6.812;2023-03-07T08:17:33;806.15;;;763.80;;
17197;SDS011;8715;51.010;6.812;2023-03-07T08:19:59;798.00;;;757.00;;
17197;SDS011;8715;51.010;6.812;2023-03-07T08:22:25;800.55;;;759.30;;
17197;SDS011;8715;51.010;6.812;2023-03-07T08:24:51;806.17;;;763.95;;
17197;SDS011;8715;51.010;6.812;2023-03-07T08:27:16;805.07;;;762.37;;
17197;SDS011;8715;51.010;6.812;2023-03-07T08:29:41;811.73;;;769.27;;
17197;SDS011;8715;51.010;6.812;2023-03-07T08:32:06;803.33;;;761.20;;
17197;SDS011;8715;51.010;6.812;2023-03-07T08:34:31;798.07;;;756.63;;
17197;SDS011;8715;51.010;6.812;2023-03-07T08:36:57;806.05;;;763.65;;
17197;SDS011;8715;51.010;6.812;2023-03-07T08:39:22;805.83;;;763.43;;
17197;SDS011;8715;51.010;6.812;2023-03-07T08:41:48;800.47;;;758.77;;
17197;SDS011;8715;51.010;6.812;2023-03-07T08:44:14;806.83;;;764.40;;
17197;SDS011;8715;51.010;6.812;2023-03-07T08:46:39;803.33;;;761.30;;
17197;SDS011;8715;51.010;6.812;2023-03-07T08:49:04;806.03;;;763.57;;
17197;SDS011;8715;51.010;6.812;2023-03-07T08:51:29;802.17;;;760.43;;
17197;SDS011;8715;51.010;6.812;2023-03-07T08:53:54;802.83;;;760.83;;
17197;SDS011;8715;51.010;6.812;2023-03-07T08:56:21;813.83;;;770.38;;
17197;SDS011;8715;51.010;6.812;2023-03-07T08:58:46;803.63;;;761.60;;
17197;SDS011;8715;51.010;6.812;2023-03-07T09:01:11;814.07;;;771.00;;
17197;SDS011;8715;51.010;6.812;2023-03-07T09:03:37;813.88;;;770.55;;
17197;SDS011;8715;51.010;6.812;2023-03-07T09:06:02;809.90;;;767.30;;
17197;SDS011;8715;51.010;6.812;2023-03-07T09:08:27;814.55;;;771.47;;
17197;SDS011;8715;51.010;6.812;2023-03-07T09:10:53;802.07;;;760.30;;
17197;SDS011;8715;51.010;6.812;2023-03-07T09:13:18;813.77;;;769.97;;
17197;SDS011;8715;51.010;6.812;2023-03-07T09:15:43;805.53;;;763.87;;
17197;SDS011;8715;51.010;6.812;2023-03-07T09:18:09;807.23;;;764.90;;
17197;SDS011;8715;51.010;6.812;2023-03-07T09:20:36;807.30;;;764.92;;
17197;SDS011;8715;51.010;6.812;2023-03-07T09:23:01;801.53;;;759.17;;
17197;SDS011;8715;51.010;6.812;2023-03-07T09:25:26;809.27;;;766.73;;
17197;SDS011;8715;51.010;6.812;2023-03-07T09:27:52;802.80;;;760.93;;
17197;SDS011;8715;51.010;6.812;2023-03-07T09:30:17;808.25;;;765.72;;
17197;SDS011;8715;51.010;6.812;2023-03-07T09:32:42;812.75;;;770.10;;
17197;SDS011;8715;51.010;6.812;2023-03-07T09:35:08;811.93;;;768.27;;
17197;SDS011;8715;51.010;6.812;2023-03-07T09:37:36;818.72;;;774.60;;
17197;SDS011;8715;51.010;6.812;2023-03-07T09:40:02;814.00;;;770.67;;
17197;SDS011;8715;51.010;6.812;2023-03-07T09:42:42;813.22;;;769.65;;
17197;SDS011;8715;51.010;6.812;2023-03-07T09:52:59;817.33;;;772.92;;
17197;SDS011;8715;51.010;6.812;2023-03-07T09:55:25;818.13;;;773.75;;
17197;SDS011;8715;51.010;6.812;2023-03-07T09:57:59;816.80;;;773.03;;
17197;SDS011;8715;51.010;6.812;2023-03-07T10:00:42;820.28;;;775.50;;
17197;SDS011;8715;51.010;6.812;2023-03-07T10:03:26;819.45;;;775.22;;
17197;SDS011;8715;51.010;6.812;2023-03-07T10:05:55;816.75;;;772.72;;
17197;SDS011;8715;51.010;6.812;2023-03-07T10:08:28;816.63;;;772.65;;
17197;SDS011;8715;51.010;6.812;2023-03-07T10:13:31;820.63;;;776.33;;
17197;SDS011;8715;51.010;6.812;2023-03-07T10:16:03;818.42;;;774.22;;
17197;SDS011;8715;51.010;6.812;2023-03-07T10:18:36;818.78;;;774.30;;
17197;SDS011;8715;51.010;6.812;2023-03-07T10:21:20;822.33;;;778.25;;
17197;SDS011;8715;51.010;6.812;2023-03-07T10:26:31;811.60;;;768.08;;
17197;SDS011;8715;51.010;6.812;2023-03-07T10:28:59;824.17;;;779.38;;
17197;SDS011;8715;51.010;6.812;2023-03-07T10:31:29;818.88;;;774.38;;
17197;SDS011;8715;51.010;6.812;2023-03-07T10:33:56;816.45;;;772.35;;
17197;SDS011;8715;51.010;6.812;2023-03-07T10:36:31;817.15;;;772.03;;
17197;SDS011;8715;51.010;6.812;2023-03-07T10:39:02;823.33;;;778.63;;
17197;SDS011;8715;51.010;6.812;2023-03-07T10:41:28;818.83;;;774.28;;
17197;SDS011;8715;51.010;6.812;2023-03-07T10:43:53;811.00;;;767.70;;
17197;SDS011;8715;51.010;6.812;2023-03-07T10:46:22;816.00;;;772.67;;
17197;SDS011;8715;51.010;6.812;2023-03-07T10:48:48;820.92;;;776.75;;
17197;SDS011;8715;51.010;6.812;2023-03-07T10:51:35;818.42;;;774.05;;
17197;SDS011;8715;51.010;6.812;2023-03-07T10:54:03;810.50;;;767.58;;
17197;SDS011;8715;51.010;6.812;2023-03-07T10:56:29;809.75;;;767.22;;
17197;SDS011;8715;51.010;6.812;2023-03-07T10:58:58;810.87;;;768.17;;
17197;SDS011;8715;51.010;6.812;2023-03-07T11:01:23;812.10;;;768.92;;
17197;SDS011;8715;51.010;6.812;2023-03-07T11:06:38;806.58;;;764.22;;
17197;SDS011;8715;51.010;6.812;2023-03-07T11:11:52;826.38;;;783.03;;
17197;SDS011;8715;51.010;6.812;2023-03-07T11:21:55;796.22;;;756.13;;
17197;SDS011;8715;51.010;6.812;2023-03-07T11:24:24;797.80;;;757.95;;
17197;SDS011;8715;51.010;6.812;2023-03-07T11:26:53;787.20;;;748.85;;
17197;SDS011;8715;51.010;6.812;2023-03-07T11:29:19;784.10;;;745.92;;
17197;SDS011;8715;51.010;6.812;2023-03-07T11:36:54;772.63;;;735.25;;
17197;SDS011;8715;51.010;6.812;2023-03-07T11:39:29;757.33;;;721.17;;
17197;SDS011;8715;51.010;6.812;2023-03-07T11:44:35;769.22;;;733.33;;
17197;SDS011;8715;51.010;6.812;2023-03-07T11:47:09;756.35;;;720.97;;
17197;SDS011;8715;51.010;6.812;2023-03-07T12:04:50;768.13;;;732.08;;
17197;SDS011;8715;51.010;6.812;2023-03-07T12:07:31;759.03;;;723.33;;
17197;SDS011;8715;51.010;6.812;2023-03-07T12:13:10;760.43;;;724.93;;
17197;SDS011;8715;51.010;6.812;2023-03-07T12:18:03;757.55;;;722.47;;
17197;SDS011;8715;51.010;6.812;2023-03-07T12:25:33;754.05;;;719.33;;
17197;SDS011;8715;51.010;6.812;2023-03-07T12:28:03;760.80;;;724.78;;
17197;SDS011;8715;51.010;6.812;2023-03-07T12:32:57;754.50;;;719.53;;
17197;SDS011;8715;51.010;6.812;2023-03-07T12:35:28;748.70;;;714.37;;
17197;SDS011;8715;51.010;6.812;2023-03-07T12:40:47;748.50;;;714.05;;
17197;SDS011;8715;51.010;6.812;2023-03-07T12:43:17;748.50;;;714.15;;
17197;SDS011;8715;51.010;6.812;2023-03-07T12:45:46;756.53;;;721.50;;
17197;SDS011;8715;51.010;6.812;2023-03-07T12:48:16;746.22;;;712.60;;
17197;SDS011;8715;51.010;6.812;2023-03-07T12:50:48;754.78;;;719.45;;
17197;SDS011;8715;51.010;6.812;2023-03-07T12:53:27;758.03;;;722.65;;
17197;SDS011;8715;51.010;6.812;2023-03-07T12:55:54;762.40;;;727.03;;
17197;SDS011;8715;51.010;6.812;2023-03-07T12:58:29;754.65;;;719.53;;
17197;SDS011;8715;51.010;6.812;2023-03-07T13:00:57;760.10;;;724.72;;
17197;SDS011;8715;51.010;6.812;2023-03-07T13:05:55;757.20;;;721.72;;
17197;SDS011;8715;51.010;6.812;2023-03-07T13:08:21;753.38;;;718.63;;
17197;SDS011;8715;51.010;6.812;2023-03-07T13:10:47;756.35;;;720.90;;
17197;SDS011;8715;51.010;6.812;2023-03-07T13:13:58;755.90;;;720.65;;
17197;SDS011;8715;51.010;6.812;2023-03-07T13:16:03;753.75;;;718.67;;
17197;SDS011;8715;51.010;6.812;2023-03-07T13:18:29;754.08;;;719.03;;
17197;SDS011;8715;51.010;6.812;2023-03-07T13:23:36;762.13;;;725.88;;
17197;SDS011;8715;51.010;6.812;2023-03-07T13:26:02;763.45;;;727.08;;
17197;SDS011;8715;51.010;6.812;2023-03-07T13:31:10;764.58;;;727.55;;
17197;SDS011;8715;51.010;6.812;2023-03-07T13:33:36;770.97;;;734.15;;
17197;SDS011;8715;51.010;6.812;2023-03-07T13:36:01;760.93;;;725.07;;
17197;SDS011;8715;51.010;6.812;2023-03-07T13:38:43;763.15;;;727.03;;
17197;SDS011;8715;51.010;6.812;2023-03-07T13:41:09;758.53;;;722.83;;
17197;SDS011;8715;51.010;6.812;2023-03-07T13:51:02;763.40;;;727.10;;
17197;SDS011;8715;51.010;6.812;2023-03-07T13:53:34;755.92;;;720.28;;
17197;SDS011;8715;51.010;6.812;2023-03-07T13:56:01;759.10;;;722.90;;
17197;SDS011;8715;51.010;6.812;2023-03-07T13:58:38;762.58;;;726.80;;
17197;SDS011;8715;51.010;6.812;2023-03-07T14:01:12;758.88;;;723.17;;
17197;SDS011;8715;51.010;6.812;2023-03-07T14:03:39;757.15;;;721.28;;
17197;SDS011;8715;51.010;6.812;2023-03-07T14:06:48;765.35;;;728.83;;
17197;SDS011;8715;51.010;6.812;2023-03-07T14:08:54;759.92;;;724.10;;
17197;SDS011;8715;51.010;6.812;2023-03-07T14:11:23;786.60;;;748.87;;
17197;SDS011;8715;51.010;6.812;2023-03-07T14:16:26;773.33;;;736.13;;
17197;SDS011;8715;51.010;6.812;2023-03-07T14:21:56;773.25;;;736.50;;
17197;SDS011;8715;51.010;6.812;2023-03-07T14:26:52;762.67;;;726.47;;
17197;SDS011;8715;51.010;6.812;2023-03-07T14:29:19;756.78;;;720.85;;
17197;SDS011;8715;51.010;6.812;2023-03-07T14:31:46;751.65;;;716.42;;
17197;SDS011;8715;51.010;6.812;2023-03-07T14:34:16;760.97;;;725.03;;
17197;SDS011;8715;51.010;6.812;2023-03-07T14:36:41;765.50;;;729.08;;
17197;SDS011;8715;51.010;6.812;2023-03-07T14:39:09;763.13;;;727.57;;
17197;SDS011;8715;51.010;6.812;2023-03-07T14:44:23;764.42;;;728.13;;
17197;SDS011;8715;51.010;6.812;2023-03-07T14:46:59;752.00;;;716.83;;
17197;SDS011;8715;51.010;6.812;2023-03-07T14:51:53;763.70;;;727.38;;
17197;SDS011;8715;51.010;6.812;2023-03-07T14:54:20;764.77;;;728.47;;
17197;SDS011;8715;51.010;6.812;2023-03-07T14:56:46;755.67;;;719.70;;
17197;SDS011;8715;51.010;6.812;2023-03-07T14:59:13;758.80;;;723.03;;
17197;SDS011;8715;51.010;6.812;2023-03-07T15:01:40;754.00;;;718.33;;
17197;SDS011;8715;51.010;6.812;2023-03-07T15:04:07;758.90;;;723.15;;
17197;SDS011;8715;51.010;6.812;2023-03-07T15:06:44;758.33;;;721.70;;
17197;SDS011;8715;51.010;6.812;2023-03-07T15:09:09;756.10;;;720.13;;
17197;SDS011;8715;51.010;6.812;2023-03-07T15:11:36;762.10;;;726.03;;
17197;SDS011;8715;51.010;6.812;2023-03-07T15:16:37;750.63;;;714.92;;
17197;SDS011;8715;51.010;6.812;2023-03-07T15:21:30;734.63;;;701.10;;
17197;SDS011;8715;51.010;6.812;2023-03-07T15:23:57;734.92;;;700.85;;
17197;SDS011;8715;51.010;6.812;2023-03-07T15:26:23;744.33;;;709.65;;
17197;SDS011;8715;51.010;6.812;2023-03-07T15:28:56;760.72;;;724.60;;
17197;SDS011;8715;51.010;6.812;2023-03-07T15:31:21;755.50;;;720.35;;
17197;SDS011;8715;51.010;6.812;2023-03-07T15:33:46;748.28;;;713.28;;
17197;SDS011;8715;51.010;6.812;2023-03-07T15:38:41;770.70;;;733.47;;
17197;SDS011;8715;51.010;6.812;2023-03-07T15:46:51;753.67;;;718.28;;
17197;SDS011;8715;51.010;6.812;2023-03-07T15:49:18;765.95;;;729.60;;
17197;SDS011;8715;51.010;6.812;2023-03-07T15:51:44;763.05;;;726.58;;
17197;SDS011;8715;51.010;6.812;2023-03-07T15:54:26;746.43;;;711.20;;
17197;SDS011;8715;51.010;6.812;2023-03-07T15:56:53;762.30;;;725.92;;
17197;SDS011;8715;51.010;6.812;2023-03-07T15:59:45;770.80;;;733.90;;
17197;SDS011;8715;51.010;6.812;2023-03-07T16:04:49;747.28;;;711.60;;
17197;SDS011;8715;51.010;6.812;2023-03-07T16:07:16;769.50;;;732.22;;
17197;SDS011;8715;51.010;6.812;2023-03-07T16:09:41;761.47;;;724.45;;
17197;SDS011;8715;51.010;6.812;2023-03-07T16:12:14;765.77;;;728.43;;